Time;durP1;ratioP1;P1;durP2;ratioP2;P2;SDS_P1;SDS_P2;PMS_P1;PMS_P2;Temp;Humidity;BMP_temperature;BMP_pressure;BME280_temperature;BME280_humidity;BME280_pressure;Samples;Min_cycle;Max_cycle;Signal;HPM_P1;HPM_P2
2024/01/05 00:01:08;;;;;;;9.32;3.90;;;4.60;85.70;;;;;;6209084;22;20259;-71
2024/01/05 00:03:35;;;;;;;8.82;3.60;;;4.60;85.70;;;;;;6233076;22;20120;-72
2024/01/05 00:06:01;;;;;;;13.60;3.53;;;4.60;86.10;;;;;;6208167;23;20096;-70
2024/01/05 00:08:28;;;;;;;7.85;3.72;;;4.60;86.00;;;;;;6209363;23;20021;-71
2024/01/05 00:10:55;;;;;;;9.77;3.63;;;4.60;85.90;;;;;;6233291;22;20121;-71
2024/01/05 00:13:22;;;;;;;10.27;3.53;;;4.60;85.90;;;;;;6232797;22;20764;-71
2024/01/05 00:15:51;;;;;;;10.18;3.70;;;4.60;85.80;;;;;;6233145;22;20103;-71
2024/01/05 00:18:18;;;;;;;10.25;3.65;;;4.60;85.70;;;;;;6231912;22;20863;-71
2024/01/05 00:20:45;;;;;;;12.30;3.67;;;4.60;85.80;;;;;;6232388;22;20056;-71
2024/01/05 00:23:12;;;;;;;10.03;3.67;;;4.50;85.70;;;;;;6233166;22;20100;-71
2024/01/05 00:25:39;;;;;;;11.10;3.85;;;4.50;85.70;;;;;;6232952;22;21205;-71
2024/01/05 00:28:06;;;;;;;11.15;3.70;;;4.50;85.90;;;;;;6232855;22;20104;-71
2024/01/05 00:30:35;;;;;;;10.57;3.40;;;4.50;85.90;;;;;;6209338;23;20558;-71
2024/01/05 00:33:04;;;;;;;11.48;4.20;;;4.50;85.80;;;;;;6233714;22;20025;-71
2024/01/05 00:35:31;;;;;;;11.10;3.60;;;4.50;85.80;;;;;;6233107;22;20028;-72
2024/01/05 00:37:58;;;;;;;10.30;3.83;;;4.50;86.00;;;;;;6183845;23;20225;-72
2024/01/05 00:40:25;;;;;;;8.80;3.20;;;4.50;86.10;;;;;;6208255;23;20148;-71
2024/01/05 00:42:52;;;;;;;10.32;3.28;;;4.50;86.20;;;;;;6233335;22;20104;-71
2024/01/05 00:45:20;;;;;;;9.77;3.67;;;4.50;86.00;;;;;;6209797;23;20025;-71
2024/01/05 00:47:47;;;;;;;9.93;3.27;;;4.50;85.90;;;;;;6183456;23;20435;-71
2024/01/05 00:50:15;;;;;;;10.73;3.10;;;4.50;85.90;;;;;;6233381;22;20316;-72
2024/01/05 00:52:42;;;;;;;10.07;3.17;;;4.50;85.80;;;;;;6182297;23;20980;-71
2024/01/05 00:55:09;;;;;;;9.65;3.40;;;4.40;85.80;;;;;;6233922;22;20025;-71
2024/01/05 00:57:37;;;;;;;10.85;3.47;;;4.40;85.80;;;;;;6233659;22;20027;-72
2024/01/05 01:00:07;;;;;;;12.37;3.77;;;4.40;86.00;;;;;;6183420;23;20096;-71
2024/01/05 01:02:36;;;;;;;9.93;3.47;;;4.40;86.10;;;;;;6207901;23;20245;-72
2024/01/05 01:05:03;;;;;;;7.35;2.90;;;4.40;86.00;;;;;;6234294;22;20615;-71
2024/01/05 01:07:32;;;;;;;8.48;3.00;;;4.40;85.90;;;;;;6234355;22;20032;-71
2024/01/05 01:09:59;;;;;;;8.10;3.13;;;4.30;85.80;;;;;;6210811;23;20124;-71
2024/01/05 01:12:26;;;;;;;6.73;2.27;;;4.30;86.00;;;;;;6210698;23;20021;-72
2024/01/05 01:14:53;;;;;;;8.18;3.00;;;4.30;86.10;;;;;;6211547;23;20539;-72
2024/01/05 01:17:22;;;;;;;10.25;3.22;;;4.30;86.30;;;;;;6209342;23;20052;-71
2024/01/05 01:19:49;;;;;;;8.73;3.67;;;4.20;86.20;;;;;;6234376;22;20029;-72
2024/01/05 01:22:16;;;;;;;11.00;3.42;;;4.20;86.20;;;;;;6234257;22;20103;-71
2024/01/05 01:24:44;;;;;;;9.87;3.23;;;4.20;86.20;;;;;;6211134;23;20021;-72
2024/01/05 01:27:11;;;;;;;8.90;3.15;;;4.20;86.30;;;;;;6234599;22;20983;-71
2024/01/05 01:29:39;;;;;;;9.40;3.17;;;4.20;86.10;;;;;;6233485;22;20055;-72
2024/01/05 01:32:07;;;;;;;10.15;3.33;;;4.20;86.50;;;;;;6233741;22;20567;-72
2024/01/05 01:34:34;;;;;;;10.02;3.38;;;4.20;86.50;;;;;;6182724;23;20021;-71
2024/01/05 01:37:02;;;;;;;14.47;3.17;;;4.20;86.70;;;;;;6210698;23;20025;-71
2024/01/05 01:39:30;;;;;;;9.23;3.03;;;4.20;86.80;;;;;;6232894;22;20217;-72
2024/01/05 01:41:59;;;;;;;10.05;3.47;;;4.20;86.70;;;;;;6230380;22;20029;-71
2024/01/05 01:44:26;;;;;;;10.30;3.85;;;4.20;86.60;;;;;;6231326;22;20033;-71
2024/01/05 01:46:56;;;;;;;10.55;3.40;;;4.20;86.60;;;;;;6230592;22;20032;-72
2024/01/05 01:49:24;;;;;;;9.17;2.90;;;4.20;86.90;;;;;;6207843;23;20132;-71
2024/01/05 01:51:53;;;;;;;10.10;4.07;;;4.20;86.90;;;;;;6229601;22;20336;-71
2024/01/05 01:54:20;;;;;;;10.38;4.07;;;4.20;86.90;;;;;;6207245;23;20029;-71
2024/01/05 01:56:49;;;;;;;11.52;3.95;;;4.20;86.90;;;;;;6234408;22;20068;-72
2024/01/05 01:59:17;;;;;;;10.15;3.63;;;4.20;87.10;;;;;;6233853;22;20082;-72
2024/01/05 02:01:45;;;;;;;9.93;3.80;;;4.20;87.20;;;;;;6232500;22;20047;-71
2024/01/05 02:04:15;;;;;;;10.32;3.40;;;4.20;87.30;;;;;;6233339;22;20740;-71
2024/01/05 02:06:44;;;;;;;8.23;3.40;;;4.20;87.20;;;;;;6233723;22;20850;-71
2024/01/05 02:09:11;;;;;;;10.80;4.30;;;4.20;87.20;;;;;;6210468;23;20105;-71
2024/01/05 02:11:39;;;;;;;9.15;3.85;;;4.20;87.50;;;;;;6232419;22;20494;-71
2024/01/05 02:14:06;;;;;;;9.60;4.13;;;4.20;87.20;;;;;;6233926;22;20103;-71
2024/01/05 02:16:34;;;;;;;13.02;4.20;;;4.30;87.10;;;;;;6234092;22;20220;-72
2024/01/05 02:19:01;;;;;;;10.52;4.00;;;4.20;87.10;;;;;;6182530;23;20052;-70
2024/01/05 02:21:32;;;;;;;8.85;3.72;;;4.20;87.20;;;;;;6232714;22;20020;-72
2024/01/05 02:24:01;;;;;;;9.10;3.53;;;4.20;87.30;;;;;;6210091;22;20071;-71
2024/01/05 02:26:28;;;;;;;10.10;3.90;;;4.20;87.30;;;;;;6233090;22;20493;-71
2024/01/05 02:28:55;;;;;;;8.57;3.75;;;4.20;87.20;;;;;;6209872;23;20312;-71
2024/01/05 02:31:22;;;;;;;8.95;4.03;;;4.20;87.50;;;;;;6233262;22;20036;-71
2024/01/05 02:33:49;;;;;;;7.78;3.50;;;4.20;87.60;;;;;;6233089;22;20021;-72
2024/01/05 02:36:16;;;;;;;11.05;3.97;;;4.20;87.40;;;;;;6182586;23;20738;-71
2024/01/05 02:38:43;;;;;;;9.17;4.30;;;4.20;87.40;;;;;;6233790;22;20024;-72
2024/01/05 02:41:11;;;;;;;6.75;3.05;;;4.20;87.50;;;;;;6209714;23;20288;-72
2024/01/05 02:43:38;;;;;;;9.20;3.90;;;4.20;87.60;;;;;;6233633;22;20116;-71
2024/01/05 02:46:05;;;;;;;8.55;3.90;;;4.20;87.60;;;;;;6233268;22;20059;-72
2024/01/05 02:48:32;;;;;;;8.13;3.85;;;4.20;87.50;;;;;;6233867;22;20121;-71
2024/01/05 02:50:59;;;;;;;9.43;3.87;;;4.20;87.50;;;;;;6209253;23;20112;-72
2024/01/05 02:53:26;;;;;;;8.02;3.67;;;4.20;87.70;;;;;;6182656;23;20292;-71
2024/01/05 02:55:54;;;;;;;9.23;3.70;;;4.20;87.70;;;;;;6233468;22;20029;-72
2024/01/05 02:58:22;;;;;;;9.10;3.40;;;4.20;87.50;;;;;;6233409;22;20119;-71
2024/01/05 03:00:49;;;;;;;8.68;3.72;;;4.20;87.50;;;;;;6182237;23;20053;-72
2024/01/05 03:03:17;;;;;;;10.17;3.87;;;4.20;87.60;;;;;;6232619;22;20072;-71
2024/01/05 03:05:44;;;;;;;8.65;3.55;;;4.20;87.50;;;;;;6233071;22;20288;-72
2024/01/05 03:08:11;;;;;;;8.68;3.42;;;4.20;87.50;;;;;;6233233;22;20025;-71
2024/01/05 03:10:38;;;;;;;9.93;3.75;;;4.20;87.50;;;;;;6232520;22;20021;-72
2024/01/05 03:13:05;;;;;;;10.45;3.30;;;4.20;87.60;;;;;;6210326;23;20021;-71
2024/01/05 03:15:33;;;;;;;9.70;3.80;;;4.20;87.80;;;;;;6233227;22;20053;-72
2024/01/05 03:18:00;;;;;;;8.25;3.67;;;4.20;88.00;;;;;;6233756;22;20259;-71
2024/01/05 03:20:28;;;;;;;9.05;3.85;;;4.20;88.10;;;;;;6232137;22;20045;-72
2024/01/05 03:22:55;;;;;;;7.68;3.22;;;4.20;88.00;;;;;;6210923;23;20104;-71
2024/01/05 03:25:22;;;;;;;8.07;3.17;;;4.20;88.00;;;;;;6234025;22;20029;-71
2024/01/05 03:27:49;;;;;;;6.93;3.03;;;4.30;87.90;;;;;;6182679;23;20064;-71
2024/01/05 03:30:16;;;;;;;7.90;3.75;;;4.20;87.80;;;;;;6233500;22;21040;-71
2024/01/05 03:32:45;;;;;;;7.72;3.58;;;4.20;87.80;;;;;;6233860;22;20362;-70
2024/01/05 03:35:12;;;;;;;7.72;3.20;;;4.30;88.00;;;;;;6211653;23;20025;-71
2024/01/05 03:37:39;;;;;;;9.68;3.65;;;4.30;88.10;;;;;;6211356;23;20025;-72
2024/01/05 03:40:07;;;;;;;8.53;3.77;;;4.30;88.20;;;;;;6209849;23;20025;-72
2024/01/05 03:42:34;;;;;;;8.88;3.83;;;4.30;88.20;;;;;;6234116;22;20273;-71
2024/01/05 03:45:01;;;;;;;7.85;3.33;;;4.30;88.00;;;;;;6233943;22;20021;-71
2024/01/05 03:47:28;;;;;;;9.68;3.78;;;4.30;87.90;;;;;;6234409;22;20033;-71
2024/01/05 03:49:57;;;;;;;8.98;3.78;;;4.30;87.90;;;;;;6233707;22;20052;-71
2024/01/05 03:52:24;;;;;;;7.23;3.50;;;4.30;88.10;;;;;;6212174;23;20025;-72
2024/01/05 03:54:51;;;;;;;8.68;3.63;;;4.30;88.30;;;;;;6237238;22;20287;-72
2024/01/05 03:57:18;;;;;;;9.07;3.90;;;4.40;88.30;;;;;;6211971;23;20059;-71
2024/01/05 03:59:45;;;;;;;7.82;3.45;;;4.30;88.10;;;;;;6237789;22;20528;-72
2024/01/05 04:02:12;;;;;;;8.25;3.35;;;4.30;88.10;;;;;;6237176;22;20087;-72
2024/01/05 04:04:40;;;;;;;9.30;3.60;;;4.40;88.20;;;;;;6237150;22;20032;-71
2024/01/05 04:07:08;;;;;;;7.47;3.35;;;4.40;88.20;;;;;;6237034;22;20272;-71
2024/01/05 04:09:35;;;;;;;10.35;4.05;;;4.40;88.30;;;;;;6187005;23;20056;-71
2024/01/05 04:12:03;;;;;;;9.88;4.32;;;4.40;88.40;;;;;;6237067;22;20052;-72
2024/01/05 04:14:30;;;;;;;7.78;3.88;;;4.40;88.50;;;;;;6237315;22;20021;-71
2024/01/05 04:16:57;;;;;;;10.23;3.83;;;4.40;88.50;;;;;;6212552;22;20080;-71
2024/01/05 04:19:24;;;;;;;12.00;4.78;;;4.40;88.50;;;;;;6235328;22;20268;-71
2024/01/05 04:21:51;;;;;;;10.68;4.28;;;4.50;88.70;;;;;;6236918;22;20045;-71
2024/01/05 04:24:20;;;;;;;9.90;4.53;;;4.50;88.60;;;;;;6238676;22;20425;-71
2024/01/05 04:26:48;;;;;;;9.25;4.10;;;4.50;88.50;;;;;;6238702;22;20092;-71
2024/01/05 04:29:15;;;;;;;10.33;4.40;;;4.50;88.30;;;;;;6213152;23;20025;-71
2024/01/05 04:31:43;;;;;;;9.68;4.07;;;4.50;88.40;;;;;;6237675;22;20213;-71
2024/01/05 04:34:10;;;;;;;9.15;4.40;;;4.50;88.30;;;;;;6238966;22;20060;-72
2024/01/05 04:36:37;;;;;;;9.40;4.10;;;4.50;88.30;;;;;;6238900;22;20025;-72
2024/01/05 04:39:04;;;;;;;10.10;4.00;;;4.50;88.20;;;;;;6214849;23;20025;-71
2024/01/05 04:41:33;;;;;;;10.03;4.37;;;4.40;88.20;;;;;;6238185;22;20426;-72
2024/01/05 04:44:00;;;;;;;10.45;4.13;;;4.40;88.40;;;;;;6212233;23;20260;-72
2024/01/05 04:46:27;;;;;;;8.38;4.10;;;4.50;88.40;;;;;;6236003;22;20062;-71
2024/01/05 04:48:54;;;;;;;8.60;3.83;;;4.40;88.40;;;;;;6212680;23;20028;-71
2024/01/05 04:51:22;;;;;;;9.77;4.60;;;4.50;88.50;;;;;;6236022;22;20021;-72
2024/01/05 04:53:49;;;;;;;12.63;4.70;;;4.50;88.60;;;;;;6237084;22;20027;-70
2024/01/05 04:56:17;;;;;;;9.93;3.97;;;4.50;88.60;;;;;;6185049;23;20229;-71
2024/01/05 04:58:45;;;;;;;11.40;5.10;;;4.50;88.60;;;;;;6213403;23;21078;-72
2024/01/05 05:01:12;;;;;;;9.90;4.10;;;4.50;88.50;;;;;;6235688;22;20037;-72
2024/01/05 05:03:39;;;;;;;9.65;5.03;;;4.50;88.70;;;;;;6214145;23;20444;-71
2024/01/05 05:06:06;;;;;;;10.50;4.83;;;4.50;89.00;;;;;;6236624;22;20061;-72
2024/01/05 05:08:34;;;;;;;12.00;4.80;;;4.50;89.00;;;;;;6237533;22;20303;-72
2024/01/05 05:11:01;;;;;;;11.82;4.90;;;4.50;89.00;;;;;;6236590;22;20021;-72
2024/01/05 05:13:28;;;;;;;11.25;5.15;;;4.50;89.10;;;;;;6236505;22;20037;-71
2024/01/05 05:15:56;;;;;;;12.77;5.20;;;4.50;88.90;;;;;;6213593;23;20064;-72
2024/01/05 05:18:23;;;;;;;11.37;5.73;;;4.50;88.90;;;;;;6212788;22;20027;-72
2024/01/05 05:20:50;;;;;;;13.63;4.95;;;4.50;88.80;;;;;;6211744;23;20232;-72
2024/01/05 05:23:18;;;;;;;9.73;4.82;;;4.50;88.80;;;;;;6212950;23;20020;-69
2024/01/05 05:25:45;;;;;;;12.55;5.30;;;4.50;88.90;;;;;;6186737;23;20715;-72
2024/01/05 05:28:12;;;;;;;11.55;4.90;;;4.50;88.90;;;;;;6236677;22;20029;-70
2024/01/05 05:30:39;;;;;;;10.53;5.17;;;4.50;89.00;;;;;;6210849;23;20041;-72
2024/01/05 05:33:07;;;;;;;11.93;5.75;;;4.50;89.00;;;;;;6213863;23;20263;-72
2024/01/05 05:35:34;;;;;;;9.82;4.55;;;4.50;88.90;;;;;;6236483;22;20025;-69
2024/01/05 05:38:03;;;;;;;10.70;5.47;;;4.60;89.20;;;;;;6185865;23;20140;-70
2024/01/05 05:40:30;;;;;;;11.70;6.07;;;4.50;89.10;;;;;;6213320;23;20041;-72
2024/01/05 05:42:58;;;;;;;13.13;5.57;;;4.60;89.10;;;;;;6236822;22;20025;-72
2024/01/05 05:45:26;;;;;;;12.82;5.03;;;4.60;89.10;;;;;;6237540;22;20331;-72
2024/01/05 05:47:53;;;;;;;12.32;5.68;;;4.60;89.10;;;;;;6210769;23;20040;-71
2024/01/05 05:50:21;;;;;;;10.30;5.05;;;4.70;89.20;;;;;;6185784;23;20028;-72
2024/01/05 05:52:51;;;;;;;12.57;5.72;;;4.70;89.30;;;;;;6236418;22;20108;-71
2024/01/05 05:55:18;;;;;;;10.60;5.20;;;4.70;89.30;;;;;;6235777;22;20013;-72
2024/01/05 05:57:45;;;;;;;11.48;5.57;;;4.70;89.40;;;;;;6211062;23;20257;-70
2024/01/05 06:00:13;;;;;;;10.50;5.07;;;4.70;89.60;;;;;;6235858;22;20103;-70
2024/01/05 06:02:40;;;;;;;10.05;5.28;;;4.70;89.60;;;;;;6209289;23;20021;-72
2024/01/05 06:05:08;;;;;;;10.63;4.85;;;4.70;89.60;;;;;;6211861;23;20028;-70
2024/01/05 06:07:36;;;;;;;13.83;5.40;;;4.80;89.80;;;;;;6235633;22;20041;-72
2024/01/05 06:10:05;;;;;;;11.65;5.53;;;4.90;90.40;;;;;;6211828;23;20213;-72
2024/01/05 06:12:31;;;;;;;10.98;5.15;;;5.00;90.30;;;;;;6184476;23;20045;-72
2024/01/05 06:14:59;;;;;;;11.85;5.20;;;5.00;90.00;;;;;;6213037;23;20088;-72
2024/01/05 06:17:26;;;;;;;11.02;5.10;;;5.00;89.80;;;;;;6235839;22;20032;-72
2024/01/05 06:19:53;;;;;;;11.83;5.47;;;5.00;89.60;;;;;;6212263;23;20339;-72
2024/01/05 06:22:19;;;;;;;11.73;5.28;;;5.00;89.50;;;;;;6234755;22;20221;-71
2024/01/05 06:24:48;;;;;;;10.82;4.63;;;5.00;89.50;;;;;;6234893;22;20017;-72
2024/01/05 06:27:15;;;;;;;10.27;4.32;;;5.00;89.40;;;;;;6212107;23;20021;-72
2024/01/05 06:29:42;;;;;;;11.07;5.38;;;5.00;89.40;;;;;;6233473;22;20025;-70
2024/01/05 06:32:09;;;;;;;12.60;5.73;;;5.00;89.30;;;;;;6233757;22;20057;-72
2024/01/05 06:34:36;;;;;;;11.43;4.88;;;5.00;89.50;;;;;;6211673;23;20292;-71
2024/01/05 06:37:03;;;;;;;11.60;5.35;;;5.00;89.50;;;;;;6234214;22;20032;-69
2024/01/05 06:39:30;;;;;;;11.75;5.28;;;5.00;89.40;;;;;;6232460;22;20364;-72
2024/01/05 06:41:59;;;;;;;11.95;5.60;;;5.00;89.50;;;;;;6233206;22;21913;-72
2024/01/05 06:44:26;;;;;;;10.37;4.97;;;5.00;89.50;;;;;;6209010;23;20659;-71
2024/01/05 06:46:53;;;;;;;11.23;5.18;;;5.10;89.80;;;;;;6231770;22;20760;-72
2024/01/05 06:49:20;;;;;;;11.95;5.53;;;5.10;89.70;;;;;;6231087;22;20064;-72
2024/01/05 06:51:47;;;;;;;11.68;5.85;;;5.10;89.60;;;;;;6230971;22;20048;-71
2024/01/05 06:54:14;;;;;;;13.43;6.40;;;5.10;89.50;;;;;;6231109;22;20116;-71
2024/01/05 06:56:42;;;;;;;11.43;5.40;;;5.10;89.50;;;;;;6230700;22;20029;-71
2024/01/05 06:59:10;;;;;;;14.15;5.47;;;5.10;89.60;;;;;;6233494;22;20225;-70
2024/01/05 07:01:38;;;;;;;14.52;6.32;;;5.10;89.50;;;;;;6184978;23;20036;-70
2024/01/05 07:04:07;;;;;;;11.88;5.75;;;5.10;89.50;;;;;;6210329;23;20485;-72
2024/01/05 07:06:35;;;;;;;14.80;6.30;;;5.10;89.50;;;;;;6211182;23;20033;-70
2024/01/05 07:09:03;;;;;;;14.47;5.60;;;5.10;89.70;;;;;;6237582;22;20604;-72
2024/01/05 07:11:30;;;;;;;13.52;6.10;;;5.10;89.60;;;;;;6187983;23;20233;-71
2024/01/05 07:13:57;;;;;;;13.93;5.70;;;5.20;89.70;;;;;;6236681;22;20025;-71
2024/01/05 07:16:26;;;;;;;13.45;6.57;;;5.20;89.90;;;;;;6211128;23;20021;-71
2024/01/05 07:18:54;;;;;;;16.13;6.60;;;5.30;89.90;;;;;;6235907;22;20083;-72
2024/01/05 07:21:21;;;;;;;15.73;6.67;;;5.30;89.70;;;;;;6207529;23;20039;-72
2024/01/05 07:23:48;;;;;;;13.63;6.32;;;5.30;89.90;;;;;;6207574;23;20237;-71
2024/01/05 07:26:20;;;;;;;17.10;6.95;;;5.30;89.90;;;;;;6232461;22;20060;-72
2024/01/05 07:28:47;;;;;;;13.60;7.05;;;5.30;90.10;;;;;;6206297;23;20029;-71
2024/01/05 07:31:14;;;;;;;14.25;6.20;;;5.30;90.20;;;;;;6206023;23;20091;-72
2024/01/05 07:33:43;;;;;;;17.87;6.17;;;5.30;90.10;;;;;;6203572;23;20025;-71
2024/01/05 07:36:10;;;;;;;16.30;6.30;;;5.30;90.00;;;;;;6180696;23;20769;-72
2024/01/05 07:38:37;;;;;;;13.98;6.55;;;5.40;90.00;;;;;;6230821;22;20048;-72
2024/01/05 07:41:04;;;;;;;15.32;5.95;;;5.40;90.00;;;;;;6231633;22;20056;-73
2024/01/05 07:43:31;;;;;;;15.75;7.03;;;5.50;89.80;;;;;;6233324;22;21147;-72
2024/01/05 07:45:58;;;;;;;14.17;7.03;;;5.50;89.70;;;;;;6229459;22;20025;-72
2024/01/05 07:48:25;;;;;;;14.82;7.13;;;5.50;89.90;;;;;;6179899;23;20252;-72
2024/01/05 07:50:54;;;;;;;16.13;7.68;;;5.50;89.90;;;;;;6229995;22;20063;-73
2024/01/05 07:53:21;;;;;;;17.48;7.50;;;5.50;89.90;;;;;;6208237;23;20049;-73
2024/01/05 07:55:48;;;;;;;15.85;6.55;;;5.50;90.10;;;;;;6231909;22;20117;-73
2024/01/05 07:58:15;;;;;;;18.20;7.30;;;5.50;90.30;;;;;;6231685;22;20056;-72
2024/01/05 08:00:42;;;;;;;18.20;6.90;;;5.60;90.20;;;;;;6231829;22;20233;-72
2024/01/05 08:03:10;;;;;;;14.98;6.28;;;5.60;90.10;;;;;;6231404;22;20112;-72
2024/01/05 08:05:37;;;;;;;15.93;7.07;;;5.60;90.30;;;;;;6231063;22;20027;-72
2024/01/05 08:08:06;;;;;;;17.10;7.35;;;5.60;90.30;;;;;;6179191;23;20027;-72
2024/01/05 08:10:33;;;;;;;18.03;7.30;;;5.70;90.40;;;;;;6230242;22;20056;-73
2024/01/05 08:13:01;;;;;;;18.40;7.72;;;5.70;90.30;;;;;;6230016;22;20221;-72
2024/01/05 08:15:28;;;;;;;14.50;7.32;;;5.70;90.60;;;;;;6229371;22;20390;-74
2024/01/05 08:17:55;;;;;;;19.05;7.97;;;5.80;90.50;;;;;;6207925;23;20049;-73
2024/01/05 08:20:22;;;;;;;16.58;7.05;;;5.80;90.50;;;;;;6230739;22;20065;-73
2024/01/05 08:22:49;;;;;;;16.17;7.47;;;5.80;90.50;;;;;;6233064;22;20067;-73
2024/01/05 08:25:18;;;;;;;16.05;7.57;;;5.80;90.40;;;;;;6205847;23;20237;-73
2024/01/05 08:27:45;;;;;;;17.35;7.40;;;5.90;90.30;;;;;;6231341;22;20088;-74
2024/01/05 08:30:12;;;;;;;14.93;7.65;;;5.90;90.50;;;;;;6207882;23;20092;-72
2024/01/05 08:32:40;;;;;;;16.17;7.72;;;5.90;90.50;;;;;;6210267;23;20029;-72
2024/01/05 08:35:08;;;;;;;13.50;6.40;;;6.00;90.50;;;;;;6179410;23;20029;-70
2024/01/05 08:37:35;;;;;;;17.35;8.32;;;6.00;90.40;;;;;;6230273;22;20381;-72
2024/01/05 08:40:02;;;;;;;15.43;7.32;;;6.00;90.20;;;;;;6178901;23;20021;-71
2024/01/05 08:42:31;;;;;;;17.85;8.50;;;6.00;90.10;;;;;;6231797;22;20029;-71
2024/01/05 08:44:58;;;;;;;15.48;6.90;;;6.00;90.00;;;;;;6233100;22;20045;-71
2024/01/05 08:47:25;;;;;;;16.93;7.33;;;6.00;90.00;;;;;;6232798;22;21030;-72
2024/01/05 08:49:52;;;;;;;14.57;7.25;;;6.00;90.00;;;;;;6232278;22;20256;-72
2024/01/05 08:52:19;;;;;;;15.55;7.07;;;6.00;90.00;;;;;;6180135;23;20033;-72
2024/01/05 08:54:46;;;;;;;17.25;7.07;;;6.00;89.90;;;;;;6207148;23;20108;-74
2024/01/05 08:57:13;;;;;;;18.42;7.85;;;6.10;89.90;;;;;;6232051;22;20028;-74
2024/01/05 08:59:43;;;;;;;17.37;7.63;;;6.10;89.80;;;;;;6232567;22;20025;-73
2024/01/05 09:02:13;;;;;;;16.65;7.30;;;6.10;89.80;;;;;;6178939;23;20228;-72
2024/01/05 09:04:40;;;;;;;15.32;8.18;;;6.10;89.80;;;;;;6228347;22;20029;-72
2024/01/05 09:07:07;;;;;;;17.25;7.07;;;6.10;89.80;;;;;;6229456;22;20040;-72
2024/01/05 09:09:34;;;;;;;17.63;8.18;;;6.10;89.80;;;;;;6229323;22;20111;-72
2024/01/05 09:12:02;;;;;;;15.60;6.80;;;6.10;89.80;;;;;;6177741;23;20474;-73
2024/01/05 09:14:29;;;;;;;15.65;7.47;;;6.10;89.70;;;;;;6231853;22;20323;-72
2024/01/05 09:17:01;;;;;;;19.35;6.97;;;6.10;89.80;;;;;;6231305;22;20116;-73
2024/01/05 09:19:27;;;;;;;16.33;7.18;;;6.20;89.80;;;;;;6230829;22;20035;-73
2024/01/05 09:21:54;;;;;;;15.73;7.35;;;6.20;89.80;;;;;;6229480;22;20378;-73
2024/01/05 09:24:21;;;;;;;13.20;5.77;;;6.20;89.80;;;;;;6228748;22;20032;-73
2024/01/05 09:26:48;;;;;;;13.27;5.35;;;6.20;89.80;;;;;;6226740;22;20021;-72
2024/01/05 09:29:15;;;;;;;13.73;6.03;;;6.20;89.90;;;;;;6203650;23;20021;-72
2024/01/05 09:31:46;;;;;;;15.93;6.80;;;6.30;90.00;;;;;;6204095;23;20721;-74
2024/01/05 09:34:15;;;;;;;13.85;6.47;;;6.30;90.00;;;;;;6176489;23;20414;-72
2024/01/05 09:36:42;;;;;;;14.27;6.10;;;6.30;90.00;;;;;;6226562;22;20032;-73
2024/01/05 09:39:10;;;;;;;13.63;5.82;;;6.30;90.00;;;;;;6230240;22;20059;-72
2024/01/05 09:41:37;;;;;;;12.57;5.13;;;6.40;90.00;;;;;;6205289;23;21041;-72
2024/01/05 09:44:04;;;;;;;11.63;4.50;;;6.40;89.90;;;;;;6231938;22;20060;-72
2024/01/05 09:46:32;;;;;;;10.18;4.13;;;6.40;90.00;;;;;;6232434;22;20021;-72
2024/01/05 09:49:01;;;;;;;8.83;3.60;;;6.50;90.10;;;;;;6206643;23;20067;-71
2024/01/05 09:51:31;;;;;;;10.00;3.75;;;6.50;90.20;;;;;;6227467;22;20037;-72
2024/01/05 09:53:59;;;;;;;10.30;3.72;;;6.50;90.30;;;;;;6231842;22;20154;-74
2024/01/05 09:56:27;;;;;;;9.30;3.53;;;6.60;90.20;;;;;;6232670;22;20032;-75
2024/01/05 09:58:55;;;;;;;7.68;2.78;;;6.60;90.20;;;;;;6230059;22;20218;-73
2024/01/05 10:01:26;;;;;;;7.67;2.77;;;6.60;90.20;;;;;;6178112;23;20510;-69
2024/01/05 10:03:56;;;;;;;8.27;2.05;;;6.70;90.20;;;;;;6230892;22;20024;-73
2024/01/05 10:06:24;;;;;;;7.32;1.90;;;6.70;90.20;;;;;;6204266;22;20025;-71
2024/01/05 10:08:54;;;;;;;5.57;1.40;;;6.80;90.20;;;;;;6224974;22;20106;-73
2024/01/05 10:11:29;;;;;;;4.68;1.45;;;6.80;90.20;;;;;;6200093;23;20021;-72
2024/01/05 10:13:58;;;;;;;5.93;1.47;;;6.80;90.20;;;;;;6176258;23;20908;-72
2024/01/05 10:16:32;;;;;;;6.82;1.70;;;6.90;90.10;;;;;;6227248;22;20075;-75
2024/01/05 10:19:10;;;;;;;5.22;1.70;;;6.90;90.10;;;;;;6201949;23;20568;-74
2024/01/05 10:21:38;;;;;;;6.60;2.65;;;6.90;90.10;;;;;;6233590;22;20037;-72
2024/01/05 10:24:14;;;;;;;5.93;2.60;;;6.90;90.10;;;;;;6234185;22;20411;-72
2024/01/05 10:26:42;;;;;;;6.23;2.77;;;7.00;90.00;;;;;;6232166;22;20027;-72
2024/01/05 10:29:16;;;;;;;7.90;3.50;;;7.00;90.00;;;;;;6206324;23;20104;-73
2024/01/05 10:31:43;;;;;;;7.05;3.03;;;7.00;90.00;;;;;;6231320;22;20097;-71
2024/01/05 10:34:10;;;;;;;8.32;3.50;;;7.00;90.00;;;;;;6208678;23;20775;-69
2024/01/05 10:36:37;;;;;;;7.88;3.63;;;7.00;90.00;;;;;;6209705;23;20567;-71
2024/01/05 10:39:08;;;;;;;7.83;4.00;;;7.00;89.90;;;;;;6183930;23;20815;-71
2024/01/05 10:41:36;;;;;;;10.23;4.38;;;7.00;89.90;;;;;;6233598;22;20037;-71
2024/01/05 10:44:04;;;;;;;7.95;3.60;;;7.00;89.80;;;;;;6233899;22;20017;-71
2024/01/05 10:46:33;;;;;;;9.63;3.75;;;7.00;89.80;;;;;;6232141;22;20025;-70
2024/01/05 10:49:02;;;;;;;10.35;4.20;;;7.00;89.80;;;;;;6183634;23;20075;-70
2024/01/05 10:51:30;;;;;;;10.43;3.53;;;7.00;89.80;;;;;;6181949;23;20025;-70
2024/01/05 10:53:58;;;;;;;8.98;3.63;;;7.00;89.70;;;;;;6211523;23;20112;-71
2024/01/05 10:56:31;;;;;;;9.57;3.95;;;7.00;89.80;;;;;;6235600;22;20095;-70
2024/01/05 10:58:58;;;;;;;6.60;2.95;;;7.00;89.80;;;;;;6234987;22;20021;-71
2024/01/05 11:01:28;;;;;;;8.48;3.50;;;7.00;89.80;;;;;;6210333;23;20068;-70
2024/01/05 11:03:56;;;;;;;9.20;3.70;;;7.00;89.80;;;;;;6234576;22;20045;-71
2024/01/05 11:06:23;;;;;;;7.40;2.50;;;7.00;89.80;;;;;;6180487;23;20056;-70
2024/01/05 11:09:04;;;;;;;6.50;1.92;;;7.00;89.80;;;;;;6209087;22;20025;-70
2024/01/05 11:11:41;;;;;;;4.95;1.42;;;7.00;89.80;;;;;;6183578;23;20113;-71
2024/01/05 11:14:30;;;;;;;4.43;1.02;;;7.00;89.80;;;;;;6208309;23;20021;-69
2024/01/05 11:17:26;;;;;;;3.93;0.83;;;7.00;89.70;;;;;;6209388;23;20538;-72
2024/01/05 11:20:20;;;;;;;4.53;0.80;;;7.10;89.60;;;;;;6182640;23;20021;-71
2024/01/05 11:22:49;;;;;;;4.07;0.60;;;7.10;89.50;;;;;;6199171;23;20037;-71
2024/01/05 11:25:17;;;;;;;2.58;0.47;;;7.10;89.40;;;;;;6186282;23;20033;-72
2024/01/05 11:27:47;;;;;;;2.38;0.40;;;7.20;89.10;;;;;;6235944;22;20021;-71
2024/01/05 11:30:14;;;;;;;3.50;0.60;;;7.10;89.00;;;;;;6184272;23;20766;-70
2024/01/05 11:32:44;;;;;;;2.75;0.70;;;7.10;88.90;;;;;;6184746;23;20116;-72
2024/01/05 11:35:51;;;;;;;3.72;0.90;;;7.10;88.90;;;;;;6183663;23;20053;-72
2024/01/05 11:38:27;;;;;;;5.43;0.80;;;7.10;88.80;;;;;;6233827;22;20020;-73
2024/01/05 11:40:54;;;;;;;2.58;0.50;;;7.10;88.80;;;;;;6183243;23;20025;-71
2024/01/05 11:43:38;;;;;;;1.97;0.30;;;7.00;88.80;;;;;;6231955;22;20025;-72
2024/01/05 11:46:06;;;;;;;3.45;0.47;;;7.10;88.80;;;;;;6209203;23;20195;-72
2024/01/05 11:48:51;;;;;;;3.13;0.50;;;7.10;88.90;;;;;;6233051;22;20080;-72
2024/01/05 11:51:18;;;;;;;2.53;0.45;;;7.10;89.00;;;;;;6229592;22;20024;-72
2024/01/05 11:53:48;;;;;;;2.67;0.40;;;7.10;88.90;;;;;;6231813;22;20839;-72
2024/01/05 11:56:20;;;;;;;2.27;0.30;;;7.20;88.90;;;;;;6180962;23;20574;-69
2024/01/05 11:58:53;;;;;;;2.17;0.30;;;7.20;88.80;;;;;;6211484;23;20025;-70
2024/01/05 12:01:21;;;;;;;2.20;0.40;;;7.20;88.70;;;;;;6206430;23;20060;-72
2024/01/05 12:03:53;;;;;;;2.78;0.50;;;7.10;88.60;;;;;;6184247;23;20128;-71
2024/01/05 12:06:21;;;;;;;1.52;0.30;;;7.10;88.60;;;;;;6182196;23;20021;-72
2024/01/05 12:08:48;;;;;;;2.13;0.50;;;7.10;88.60;;;;;;6209191;23;20125;-73
2024/01/05 12:11:15;;;;;;;3.55;0.50;;;7.10;88.60;;;;;;6211158;23;20020;-70
2024/01/05 12:13:44;;;;;;;4.00;0.45;;;7.10;88.70;;;;;;6232475;22;20028;-71
2024/01/05 12:16:13;;;;;;;2.35;0.30;;;7.10;88.70;;;;;;6209879;23;20031;-70
2024/01/05 12:18:44;;;;;;;2.17;0.40;;;7.10;88.70;;;;;;6182349;23;20044;-71
2024/01/05 12:21:13;;;;;;;2.00;0.30;;;7.10;88.60;;;;;;6230959;22;20422;-71
2024/01/05 12:23:50;;;;;;;1.85;0.30;;;7.10;88.60;;;;;;6231631;22;20693;-70
2024/01/05 12:26:17;;;;;;;2.25;0.28;;;7.10;88.50;;;;;;6231815;22;20027;-72
2024/01/05 12:28:45;;;;;;;1.60;0.30;;;7.10;88.40;;;;;;6236117;22;20025;-71
2024/01/05 12:31:14;;;;;;;2.15;0.30;;;7.10;88.30;;;;;;6235166;22;20025;-70
2024/01/05 12:33:43;;;;;;;1.63;0.30;;;7.10;88.30;;;;;;6234314;22;20025;-70
2024/01/05 12:36:12;;;;;;;1.95;0.35;;;7.10;88.40;;;;;;6209607;23;20032;-71
2024/01/05 12:38:40;;;;;;;2.25;0.30;;;7.00;88.40;;;;;;6181559;23;20109;-72
2024/01/05 12:41:09;;;;;;;2.35;0.30;;;7.00;88.30;;;;;;6207864;23;20052;-71
2024/01/05 12:43:36;;;;;;;2.60;0.40;;;7.00;88.30;;;;;;6232131;22;20029;-73
2024/01/05 12:46:04;;;;;;;3.57;0.30;;;7.00;88.40;;;;;;6230466;22;20751;-73
2024/01/05 12:48:33;;;;;;;2.10;0.40;;;7.00;88.40;;;;;;6231268;22;20021;-71
2024/01/05 12:51:05;;;;;;;2.00;0.40;;;7.00;88.40;;;;;;6231835;22;20021;-70
2024/01/05 12:53:32;;;;;;;2.00;0.40;;;7.00;88.40;;;;;;6209213;23;20021;-74
2024/01/05 12:56:07;;;;;;;2.22;0.35;;;7.00;88.40;;;;;;6237403;22;20045;-73
2024/01/05 12:58:41;;;;;;;2.17;0.30;;;7.00;88.50;;;;;;6185430;23;20027;-72